createdAt,value
2019-06-20T00:02:04.709Z,15.00
2019-06-20T00:04:36.047Z,13.33
2019-06-20T00:07:07.370Z,14.67
2019-06-20T00:09:40.473Z,11.00
2019-06-20T00:12:13.075Z,14.40
2019-06-20T00:14:43.277Z,15.33
2019-06-20T00:17:14.854Z,11.67
2019-06-20T00:19:45.333Z,14.00
2019-06-20T00:22:16.035Z,16.33
2019-06-20T00:24:46.321Z,15.67
2019-06-20T00:27:16.362Z,15.00
2019-06-20T00:29:46.349Z,15.00
2019-06-20T00:32:17.334Z,14.33
2019-06-20T00:34:47.460Z,15.33
2019-06-20T00:37:19.248Z,16.00
2019-06-20T00:39:49.711Z,15.00
2019-06-20T00:42:24.826Z,15.00
2019-06-20T00:44:54.910Z,14.00
2019-06-20T00:47:25.108Z,13.67
2019-06-20T00:49:55.461Z,12.33
2019-06-20T00:52:35.078Z,13.67
2019-06-20T00:55:05.968Z,13.33
2019-06-20T00:57:38.207Z,18.00
2019-06-20T01:00:09.317Z,14.00
2019-06-20T01:02:40.855Z,13.00
2019-06-20T01:05:14.439Z,12.33
2019-06-20T01:07:45.377Z,12.33
2019-06-20T01:10:15.294Z,12.00
2019-06-20T01:12:46.229Z,13.00
2019-06-20T01:15:16.246Z,14.00
2019-06-20T01:17:48.484Z,13.00
2019-06-20T01:20:20.218Z,15.33
2019-06-20T01:23:01.674Z,12.00
2019-06-20T01:25:39.599Z,12.00
2019-06-20T01:28:09.643Z,15.00
2019-06-20T01:30:39.683Z,14.00
2019-06-20T01:33:09.707Z,14.00
2019-06-20T01:35:39.971Z,12.00
2019-06-20T01:38:10.383Z,14.67
2019-06-20T01:40:40.507Z,12.33
2019-06-20T01:43:10.564Z,13.33
2019-06-20T01:45:40.752Z,13.67
2019-06-20T01:48:10.823Z,14.00
2019-06-20T01:50:40.807Z,13.67
2019-06-20T01:53:19.247Z,15.33
2019-06-20T01:55:53.023Z,15.33
2019-06-20T01:58:23.079Z,12.00
2019-06-20T02:00:58.922Z,13.67
2019-06-20T02:03:32.902Z,15.33
2019-06-20T02:06:03.575Z,15.00
2019-06-20T02:08:34.407Z,13.00
2019-06-20T02:11:04.418Z,13.33
2019-06-20T02:13:34.366Z,15.67
2019-06-20T02:16:04.653Z,17.33
2019-06-20T02:18:36.557Z,14.00
2019-06-20T02:21:07.059Z,15.33
2019-06-20T02:23:40.010Z,14.00
2019-06-20T02:26:10.431Z,15.67
2019-06-20T02:28:42.393Z,18.00
2019-06-20T02:31:12.489Z,12.00
2019-06-20T02:33:42.532Z,15.00
2019-06-20T02:36:12.666Z,15.00
2019-06-20T02:38:42.890Z,13.00
2019-06-20T02:41:25.884Z,12.67
2019-06-20T02:43:55.859Z,16.00
2019-06-20T02:46:28.719Z,14.33
2019-06-20T02:48:59.247Z,11.00
2019-06-20T02:51:41.252Z,12.00
2019-06-20T02:54:36.962Z,13.67
2019-06-20T02:57:07.066Z,11.00
2019-06-20T02:59:44.189Z,11.67
2019-06-20T03:02:15.150Z,12.00
2019-06-20T03:04:46.330Z,13.00
2019-06-20T03:07:22.753Z,10.67
2019-06-20T03:09:55.060Z,10.00
2019-06-20T03:12:31.805Z,8.00
2019-06-20T03:15:04.809Z,8.00
2019-06-20T03:17:35.710Z,9.00
2019-06-20T03:20:16.473Z,9.60
2019-06-20T03:22:51.245Z,9.25
2019-06-20T03:25:35.370Z,9.00
2019-06-20T03:28:08.312Z,8.67
2019-06-20T03:30:41.959Z,9.67
2019-06-20T03:33:12.877Z,7.33
2019-06-20T03:35:43.875Z,9.00
2019-06-20T03:38:17.198Z,9.00
2019-06-20T03:40:50.439Z,10.00
2019-06-20T03:43:21.506Z,9.00
2019-06-20T03:45:52.556Z,9.00
2019-06-20T03:48:24.048Z,9.00
2019-06-20T03:50:56.763Z,9.83
2019-06-20T03:53:28.379Z,8.60
2019-06-20T03:55:59.678Z,14.00
2019-06-20T03:58:30.679Z,9.00
2019-06-20T04:01:05.674Z,9.33
2019-06-20T04:03:37.165Z,8.00
2019-06-20T04:06:08.304Z,10.33
2019-06-20T04:08:39.669Z,9.00
2019-06-20T04:11:10.680Z,9.00
2019-06-20T04:13:42.072Z,9.00
2019-06-20T04:16:55.736Z,9.00
2019-06-20T04:19:56.479Z,9.33
2019-06-20T04:22:31.091Z,11.00
2019-06-20T04:25:32.808Z,8.67
2019-06-20T04:28:19.710Z,11.00
2019-06-20T04:31:01.271Z,14.33
2019-06-20T04:33:50.706Z,13.00
2019-06-20T04:36:37.712Z,13.00
2019-06-20T04:39:39.033Z,13.00
2019-06-20T04:42:32.821Z,14.00
2019-06-20T04:45:34.144Z,12.00
2019-06-20T04:48:19.016Z,14.00
2019-06-20T04:51:39.901Z,11.67
2019-06-20T04:54:28.270Z,12.33
2019-06-20T04:57:15.367Z,12.00
2019-06-20T05:00:07.078Z,8.67
2019-06-20T05:02:39.007Z,10.00
2019-06-20T05:05:12.651Z,9.60
2019-06-20T05:07:43.927Z,13.00
2019-06-20T05:10:16.451Z,13.00
2019-06-20T05:12:46.473Z,12.00
2019-06-20T05:15:17.710Z,12.67
2019-06-20T05:17:49.997Z,11.00
2019-06-20T05:20:24.676Z,10.67
2019-06-20T05:22:56.297Z,14.00
2019-06-20T05:25:31.134Z,14.33
2019-06-20T05:28:04.037Z,14.67
2019-06-20T05:34:58.508Z,12.67
2019-06-20T05:38:40.334Z,12.33
2019-06-20T05:45:20.449Z,15.00
2019-06-20T05:47:50.924Z,14.00
2019-06-20T05:50:22.481Z,14.00
2019-06-20T05:52:55.308Z,10.67
2019-06-20T05:55:43.132Z,12.67
2019-06-20T05:58:17.187Z,12.67
2019-06-20T06:00:51.839Z,11.33
2019-06-20T06:03:23.361Z,15.00
2019-06-20T06:06:05.421Z,10.75
2019-06-20T06:08:37.018Z,11.00
2019-06-20T06:11:08.925Z,12.00
2019-06-20T06:13:39.312Z,15.00
2019-06-20T06:16:26.118Z,12.00
2019-06-20T06:19:30.299Z,14.00
2019-06-20T06:22:03.290Z,14.00
2019-06-20T06:24:46.464Z,14.00
2019-06-20T06:27:38.668Z,10.33
2019-06-20T06:30:17.032Z,13.33
2019-06-20T06:32:54.842Z,10.33
2019-06-20T06:35:26.504Z,12.33
2019-06-20T06:37:58.005Z,12.33
2019-06-20T06:40:30.521Z,12.00
2019-06-20T06:43:01.513Z,10.00
2019-06-20T06:45:44.755Z,10.00
2019-06-20T06:48:38.778Z,9.33
2019-06-20T06:51:55.988Z,8.67
2019-06-20T06:54:34.703Z,9.33
2019-06-20T06:57:20.302Z,10.67
2019-06-20T07:00:06.305Z,9.00
2019-06-20T07:02:37.338Z,9.00
2019-06-20T07:05:09.963Z,10.00
2019-06-20T07:07:41.767Z,12.50
2019-06-20T07:10:16.281Z,9.67
2019-06-20T07:12:48.235Z,11.00
2019-06-20T07:15:19.292Z,10.00
2019-06-20T07:17:50.287Z,9.33
2019-06-20T07:20:21.600Z,9.00
2019-06-20T07:22:55.376Z,10.75
2019-06-20T07:25:26.999Z,9.00
2019-06-20T07:27:58.885Z,8.00
2019-06-20T07:30:29.836Z,10.00
2019-06-20T07:33:00.993Z,8.00
2019-06-20T07:35:32.336Z,8.00
2019-06-20T07:38:28.126Z,8.33
2019-06-20T07:41:00.977Z,9.20
2019-06-20T07:43:32.049Z,7.00
2019-06-20T07:49:47.505Z,7.00
2019-06-20T07:53:02.079Z,8.00
2019-06-20T07:55:43.429Z,9.80
2019-06-20T07:58:23.301Z,7.00
2019-06-20T08:04:19.094Z,9.00
2019-06-20T08:07:17.743Z,8.80
2019-06-20T08:10:17.438Z,8.00
2019-06-20T08:19:07.830Z,10.67
2019-06-20T08:22:14.121Z,9.00
2019-06-20T08:25:17.533Z,9.00
2019-06-20T08:31:08.908Z,10.00
2019-06-20T08:33:41.297Z,10.00
2019-06-20T08:36:13.511Z,10.25
2019-06-20T08:39:00.171Z,11.33
2019-06-20T08:41:31.974Z,9.00
2019-06-20T08:44:04.474Z,10.50
2019-06-20T08:47:07.208Z,8.00
2019-06-20T08:50:11.820Z,9.00
2019-06-20T08:53:01.639Z,9.00
2019-06-20T08:56:07.155Z,9.00
2019-06-20T08:59:23.964Z,7.33
2019-06-20T09:02:37.642Z,9.00
2019-06-20T09:05:51.776Z,9.00
2019-06-20T09:12:13.733Z,8.20
2019-06-20T09:15:23.102Z,7.33
2019-06-20T09:18:45.078Z,7.80
2019-06-20T09:21:36.983Z,9.00
2019-06-20T09:24:48.491Z,6.80
2019-06-20T09:31:10.229Z,8.80
2019-06-20T09:34:44.067Z,7.00
2019-06-20T09:44:40.033Z,6.60
2019-06-20T09:54:48.484Z,9.20
2019-06-20T09:58:18.955Z,9.00
2019-06-20T10:04:57.190Z,8.00
2019-06-20T10:11:59.275Z,8.00
2019-06-20T10:20:54.843Z,10.50
2019-06-20T10:23:31.353Z,9.67
2019-06-20T10:26:04.282Z,10.00
2019-06-20T10:28:40.400Z,9.50
2019-06-20T10:32:06.082Z,8.67
2019-06-20T10:35:17.990Z,8.67
2019-06-20T10:41:11.200Z,14.33
2019-06-20T10:43:42.994Z,10.33
2019-06-20T10:46:18.670Z,10.00
2019-06-20T10:49:15.529Z,13.33
2019-06-20T10:52:08.715Z,12.00
2019-06-20T10:54:41.673Z,14.00
2019-06-20T10:57:13.292Z,12.33
2019-06-20T10:59:44.379Z,12.67
2019-06-20T11:02:16.487Z,9.67
2019-06-20T11:04:47.775Z,11.00
2019-06-20T11:07:21.460Z,9.00
2019-06-20T11:09:52.638Z,11.67
2019-06-20T11:12:23.751Z,9.67
2019-06-20T11:14:55.836Z,10.75
2019-06-20T11:17:27.331Z,8.00
2019-06-20T11:19:58.372Z,12.00
2019-06-20T11:22:29.414Z,9.33
2019-06-20T11:25:00.269Z,12.00
2019-06-20T11:27:31.555Z,11.33
2019-06-20T11:30:02.549Z,11.00
2019-06-20T11:32:33.389Z,12.67
2019-06-20T11:35:09.563Z,10.00
2019-06-20T11:41:22.926Z,11.00
2019-06-20T11:44:03.035Z,11.00
2019-06-20T11:46:35.300Z,7.33
2019-06-20T11:49:06.887Z,8.00
2019-06-20T11:51:39.839Z,8.00
2019-06-20T11:54:13.770Z,6.67
2019-06-20T11:56:53.132Z,7.00
2019-06-20T11:59:37.454Z,8.00
2019-06-20T12:02:12.368Z,6.33
2019-06-20T12:04:47.166Z,7.20
2019-06-20T12:07:25.531Z,8.00
2019-06-20T12:09:59.643Z,9.67
2019-06-20T12:12:34.112Z,10.00
2019-06-20T12:15:11.578Z,11.33
2019-06-20T12:17:45.224Z,10.50
2019-06-20T12:20:16.687Z,11.33
2019-06-20T12:22:58.191Z,8.33
2019-06-20T12:25:29.980Z,10.00
2019-06-20T12:28:00.893Z,11.00
2019-06-20T12:30:35.297Z,10.67
2019-06-20T12:33:06.275Z,9.67
2019-06-20T12:35:48.590Z,9.00
2019-06-20T12:38:21.645Z,9.00
2019-06-20T12:40:53.531Z,9.20
2019-06-20T12:43:27.249Z,10.00
2019-06-20T12:46:01.822Z,8.67
2019-06-20T12:48:34.656Z,9.00
2019-06-20T12:51:11.812Z,9.60
2019-06-20T12:53:47.235Z,11.50
2019-06-20T12:56:22.201Z,9.33
2019-06-20T12:59:04.226Z,10.00
2019-06-20T13:01:47.345Z,9.00
2019-06-20T13:04:30.112Z,8.67
2019-06-20T13:07:00.590Z,8.33
2019-06-20T13:09:32.109Z,7.67
2019-06-20T13:12:07.926Z,9.00
2019-06-20T13:14:48.008Z,8.33
2019-06-20T13:17:21.159Z,8.00
2019-06-20T13:20:11.685Z,9.50
2019-06-20T13:22:47.158Z,9.75
2019-06-20T13:25:32.660Z,8.20
2019-06-20T13:28:26.818Z,8.50
2019-06-20T13:31:03.218Z,7.67
2019-06-20T13:33:49.023Z,10.00
2019-06-20T13:36:28.396Z,8.75
2019-06-20T13:39:10.620Z,7.67
2019-06-20T13:41:52.826Z,7.67
2019-06-20T13:44:24.344Z,9.20
2019-06-20T13:46:58.473Z,8.00
2019-06-20T13:49:35.809Z,9.00
2019-06-20T13:52:10.268Z,6.00
2019-06-20T13:54:43.030Z,8.00
2019-06-20T13:57:18.550Z,9.67
2019-06-20T13:59:52.640Z,9.00
2019-06-20T14:02:22.506Z,8.20
2019-06-20T14:04:53.869Z,8.00
2019-06-20T14:07:32.121Z,9.00
2019-06-20T14:10:34.504Z,8.00
2019-06-20T14:13:19.772Z,8.00
2019-06-20T14:15:58.261Z,8.00
2019-06-20T14:18:34.098Z,8.67
2019-06-20T14:21:05.849Z,8.20
2019-06-20T14:23:37.885Z,7.60
2019-06-20T14:26:14.573Z,7.00
2019-06-20T14:28:49.086Z,8.33
2019-06-20T14:31:29.366Z,8.00
2019-06-20T14:34:20.588Z,9.00
2019-06-20T14:36:52.277Z,6.00
2019-06-20T14:39:38.987Z,4.60
2019-06-20T14:42:10.665Z,4.40
2019-06-20T14:44:46.419Z,4.80
2019-06-20T14:47:25.663Z,5.40
2019-06-20T14:50:03.374Z,5.00
2019-06-20T14:52:46.628Z,4.40
2019-06-20T14:55:18.115Z,3.67
2019-06-20T14:57:55.118Z,3.60
2019-06-20T15:00:36.249Z,4.00
2019-06-20T15:03:10.771Z,4.00
2019-06-20T15:05:52.636Z,4.60
2019-06-20T15:08:24.435Z,4.80
2019-06-20T15:10:56.225Z,4.40
2019-06-20T15:13:28.194Z,5.00
2019-06-20T15:16:00.118Z,4.00
2019-06-20T15:18:32.091Z,5.60
2019-06-20T15:21:07.379Z,5.00
2019-06-20T15:23:42.779Z,5.00
2019-06-20T15:26:20.088Z,5.00
2019-06-20T15:28:53.417Z,4.00
2019-06-20T15:31:44.143Z,4.00
2019-06-20T15:34:15.921Z,3.40
2019-06-20T15:36:55.659Z,5.00
2019-06-20T15:39:46.705Z,4.00
2019-06-20T15:42:18.293Z,5.00
2019-06-20T15:45:05.921Z,4.00
2019-06-20T15:47:53.417Z,5.00
2019-06-20T15:50:40.247Z,3.60
2019-06-20T15:53:10.164Z,4.40
2019-06-20T15:55:48.912Z,3.00
2019-06-20T15:58:34.556Z,3.00
2019-06-20T16:01:14.048Z,4.00
2019-06-20T16:03:52.547Z,3.60
2019-06-20T16:07:08.414Z,4.00
2019-06-20T16:09:40.172Z,4.40
2019-06-20T16:12:15.305Z,3.00
2019-06-20T16:14:47.073Z,3.00
2019-06-20T16:17:20.864Z,2.00
2019-06-20T16:20:33.306Z,3.00
2019-06-20T16:23:05.074Z,3.40
2019-06-20T16:25:36.814Z,3.00
2019-06-20T16:28:26.111Z,3.20
2019-06-20T16:31:10.046Z,3.00
2019-06-20T16:33:39.230Z,3.40
2019-06-20T16:36:13.043Z,3.40
2019-06-20T16:38:47.255Z,3.00
2019-06-20T16:41:40.203Z,3.80
2019-06-20T16:44:21.082Z,4.00
2019-06-20T16:46:53.553Z,3.20
2019-06-20T16:49:35.648Z,4.00
2019-06-20T16:52:09.297Z,4.00
2019-06-20T16:54:55.077Z,3.00
2019-06-20T16:57:50.889Z,3.20
2019-06-20T17:00:40.760Z,3.00
2019-06-20T17:03:23.174Z,3.60
2019-06-20T17:05:58.339Z,4.00
2019-06-20T17:08:30.226Z,4.00
2019-06-20T17:11:16.852Z,4.00
2019-06-20T17:13:53.449Z,5.00
2019-06-20T17:16:35.286Z,4.00
2019-06-20T17:19:11.614Z,4.00
2019-06-20T17:22:02.426Z,3.00
2019-06-20T17:24:41.749Z,3.80
2019-06-20T17:27:29.253Z,4.00
2019-06-20T17:30:01.543Z,5.00
2019-06-20T17:32:34.095Z,3.40
2019-06-20T17:35:20.533Z,5.00
2019-06-20T17:38:01.047Z,3.00
2019-06-20T17:40:51.202Z,3.20
2019-06-20T17:43:30.852Z,3.00
2019-06-20T17:46:05.038Z,4.60
2019-06-20T17:48:50.243Z,2.40
2019-06-20T17:51:34.015Z,4.40
2019-06-20T17:54:13.141Z,3.80
2019-06-20T17:56:48.028Z,3.20
2019-06-20T17:59:30.334Z,3.00
2019-06-20T18:02:19.238Z,3.80
2019-06-20T18:05:05.989Z,2.00
2019-06-20T18:07:40.942Z,2.80
2019-06-20T18:10:57.237Z,1.60
2019-06-20T18:13:34.560Z,2.20
2019-06-20T18:16:06.547Z,2.40
2019-06-20T18:18:38.545Z,3.00
2019-06-20T18:21:10.375Z,3.60
2019-06-20T18:23:49.630Z,2.40
2019-06-20T18:26:50.611Z,2.00
2019-06-20T18:29:24.875Z,3.20
2019-06-20T18:32:04.649Z,2.40
2019-06-20T18:34:39.309Z,2.40
2019-06-20T18:37:31.654Z,3.40
2019-06-20T18:40:03.181Z,3.40
2019-06-20T18:42:38.085Z,3.20
2019-06-20T18:45:10.164Z,3.80
2019-06-20T18:47:52.032Z,4.40
2019-06-20T18:50:25.605Z,3.80
2019-06-20T18:53:05.939Z,4.60
2019-06-20T18:55:49.480Z,4.00
2019-06-20T18:58:29.050Z,4.60
2019-06-20T19:01:00.974Z,4.00
2019-06-20T19:03:32.795Z,4.00
2019-06-20T19:06:07.487Z,4.00
2019-06-20T19:08:39.384Z,4.20
2019-06-20T19:11:11.269Z,5.00
2019-06-20T19:13:55.471Z,3.00
2019-06-20T19:16:24.526Z,5.00
2019-06-20T19:19:11.248Z,5.00
2019-06-20T19:21:46.521Z,6.00
2019-06-20T19:24:33.332Z,6.20
2019-06-20T19:27:06.874Z,5.60
2019-06-20T19:29:42.465Z,5.00
2019-06-20T19:32:16.280Z,7.60
2019-06-20T19:35:13.150Z,7.20
2019-06-20T19:37:47.199Z,6.00
2019-06-20T19:40:42.754Z,6.00
2019-06-20T19:43:23.141Z,7.33
2019-06-20T19:45:57.941Z,7.60
2019-06-20T19:48:29.656Z,6.40
2019-06-20T19:51:02.715Z,7.00
2019-06-20T19:53:40.375Z,9.00
2019-06-20T19:56:49.207Z,7.67
2019-06-20T19:59:28.893Z,7.00
2019-06-20T20:02:19.537Z,6.00
2019-06-20T20:04:53.277Z,6.00
2019-06-20T20:07:26.954Z,6.00
2019-06-20T20:10:00.773Z,7.00
2019-06-20T20:12:43.677Z,8.80
2019-06-20T20:15:17.883Z,6.40
2019-06-20T20:17:56.717Z,7.00
2019-06-20T20:20:28.474Z,7.00
2019-06-20T20:23:12.191Z,7.33
2019-06-20T20:25:59.709Z,8.80
2019-06-20T20:28:30.668Z,6.67
2019-06-20T20:31:02.001Z,7.00
2019-06-20T20:33:35.323Z,9.00
2019-06-20T20:36:06.111Z,7.67
2019-06-20T20:38:39.209Z,9.33
2019-06-20T20:41:10.013Z,9.33
2019-06-20T20:43:40.893Z,11.00
2019-06-20T20:46:27.166Z,9.67
2019-06-20T20:49:02.787Z,12.00
2019-06-20T20:51:44.399Z,11.33
2019-06-20T20:54:29.702Z,10.00
2019-06-20T20:57:02.061Z,11.33
2019-06-20T20:59:33.986Z,13.00
2019-06-20T21:02:17.228Z,11.75
2019-06-20T21:05:05.604Z,10.25
2019-06-20T21:08:14.067Z,9.00
2019-06-20T21:10:45.340Z,7.33
2019-06-20T21:13:20.472Z,9.00
2019-06-20T21:15:56.477Z,8.67
2019-06-20T21:18:54.336Z,8.20
2019-06-20T21:21:39.680Z,7.33
2019-06-20T21:24:38.389Z,9.60
2019-06-20T21:27:11.863Z,7.00
2019-06-20T21:29:45.413Z,8.60
2019-06-20T21:32:16.376Z,8.00
2019-06-20T21:35:03.562Z,8.00
2019-06-20T21:37:52.456Z,7.00
2019-06-20T21:40:19.973Z,8.00
2019-06-20T21:42:59.694Z,6.33
2019-06-20T21:45:59.656Z,5.00
2019-06-20T21:51:37.093Z,7.20
2019-06-20T21:54:08.886Z,5.40
2019-06-20T21:56:54.917Z,5.80
2019-06-20T21:59:33.455Z,5.67
2019-06-20T22:02:05.721Z,6.40
2019-06-20T22:04:53.771Z,6.20
2019-06-20T22:07:13.834Z,8.40
2019-06-20T22:09:47.024Z,8.00
2019-06-20T22:12:24.131Z,5.60
2019-06-20T22:15:00.886Z,6.00
2019-06-20T22:17:32.572Z,8.20
2019-06-20T22:20:07.830Z,7.00
2019-06-20T22:22:39.682Z,6.80
2019-06-20T22:28:28.227Z,7.20
2019-06-20T22:31:05.573Z,7.00
2019-06-20T22:33:53.444Z,8.00
2019-06-20T22:36:39.497Z,8.00
2019-06-20T22:39:11.776Z,8.67
2019-06-20T22:41:43.294Z,7.00
2019-06-20T22:44:26.702Z,8.00
2019-06-20T22:46:58.926Z,7.00
2019-06-20T22:49:33.506Z,6.33
2019-06-20T22:52:19.693Z,10.50
2019-06-20T22:55:02.978Z,8.00
2019-06-20T22:57:40.564Z,7.00
2019-06-20T23:00:24.238Z,7.25
2019-06-20T23:02:55.307Z,7.00
2019-06-20T23:05:29.422Z,8.67
2019-06-20T23:08:02.899Z,7.67
2019-06-20T23:10:37.975Z,8.60
2019-06-20T23:13:14.977Z,8.00
2019-06-20T23:15:56.523Z,10.20
2019-06-20T23:18:32.512Z,9.40
2019-06-20T23:21:22.786Z,8.00
2019-06-20T23:24:09.597Z,9.00
2019-06-20T23:26:41.326Z,9.00
2019-06-20T23:29:27.106Z,8.00
2019-06-20T23:32:00.358Z,7.00
2019-06-20T23:34:33.999Z,8.67
2019-06-20T23:37:12.853Z,8.80
2019-06-20T23:39:39.598Z,8.67
2019-06-20T23:42:10.348Z,10.00
2019-06-20T23:44:41.258Z,9.00
2019-06-20T23:47:13.311Z,8.00
2019-06-20T23:49:44.616Z,9.00
2019-06-20T23:52:19.222Z,7.67
2019-06-20T23:54:50.183Z,8.00
